createdAt,value
2018-04-25T00:04:50.022Z,1001.3
2018-04-25T00:15:04.224Z,1001
2018-04-25T00:25:18.458Z,1000.8
2018-04-25T00:35:32.792Z,1000.6
2018-04-25T00:45:47.308Z,1000.6
2018-04-25T00:56:02.066Z,1000.5
2018-04-25T01:06:16.727Z,1000.1
2018-04-25T01:16:31.169Z,1000
2018-04-25T01:26:46.125Z,1000
2018-04-25T01:37:01.524Z,999.9
2018-04-25T01:47:16.687Z,999.8
2018-04-25T01:57:31.018Z,999.7
2018-04-25T02:07:45.181Z,999.6
2018-04-25T02:17:59.705Z,999.5
2018-04-25T02:28:15.221Z,999.4
2018-04-25T02:38:30.017Z,999.4
2018-04-25T02:48:44.079Z,999.3
2018-04-25T02:58:58.835Z,999.2
2018-04-25T03:09:13.774Z,999.2
2018-04-25T03:19:28.570Z,999.1
2018-04-25T03:29:43.426Z,999
2018-04-25T03:39:58.769Z,999
2018-04-25T03:50:14.164Z,999
2018-04-25T04:00:28.937Z,998.9
2018-04-25T04:10:44.150Z,998.9
2018-04-25T04:20:59.197Z,998.8
2018-04-25T04:31:13.371Z,998.9
2018-04-25T04:41:27.272Z,998.9
2018-04-25T04:51:42.911Z,998.9
2018-04-25T05:01:56.669Z,998.9
2018-04-25T05:12:10.509Z,998.8
2018-04-25T05:22:26.162Z,998.9
2018-04-25T05:32:40.090Z,999.1
2018-04-25T05:42:55.401Z,999.5
2018-04-25T05:53:10.879Z,999.8
2018-04-25T06:03:25.534Z,999.7
2018-04-25T06:13:40.342Z,999.6
2018-04-25T06:23:54.634Z,999.8
2018-04-25T06:34:10.298Z,1000.1
2018-04-25T06:44:24.478Z,1000.4
2018-04-25T06:54:38.429Z,1000.3
2018-04-25T07:04:52.290Z,1000.3
2018-04-25T07:15:06.727Z,1000.5
2018-04-25T07:25:21.537Z,1000.7
2018-04-25T07:35:35.866Z,1000.6
2018-04-25T07:45:51.458Z,1001.4
2018-04-25T07:56:06.720Z,1001.1
